sensor_id;sensor_type;location;lat;lon;timestamp;pressure;altitude;pressure_sealevel;temperature;humidity
9460;BME280;4768;42.664;23.240;2022-07-24T00:01:29;172668.00;;;21.39;100.00
9460;BME280;4768;42.664;23.240;2022-07-24T00:03:56;172613.00;;;21.19;100.00
9460;BME280;4768;42.664;23.240;2022-07-24T00:06:23;172553.97;;;20.97;100.00
9460;BME280;4768;42.664;23.240;2022-07-24T00:08:49;172568.72;;;21.03;100.00
9460;BME280;4768;42.664;23.240;2022-07-24T00:11:16;172572.75;;;21.04;100.00
9460;BME280;4768;42.664;23.240;2022-07-24T00:13:43;172532.53;;;20.89;100.00
9460;BME280;4768;42.664;23.240;2022-07-24T00:16:12;172523.09;;;20.86;100.00
9460;BME280;4768;42.664;23.240;2022-07-24T00:18:39;172531.16;;;20.89;100.00
9460;BME280;4768;42.664;23.240;2022-07-24T00:21:05;172458.69;;;20.62;100.00
9460;BME280;4768;42.664;23.240;2022-07-24T00:23:33;172525.81;;;20.87;100.00
9460;BME280;4768;42.664;23.240;2022-07-24T00:25:59;172540.56;;;20.92;100.00
9460;BME280;4768;42.664;23.240;2022-07-24T00:28:26;172482.88;;;20.71;100.00
9460;BME280;4768;42.664;23.240;2022-07-24T00:30:53;172457.38;;;20.62;100.00
9460;BME280;4768;42.664;23.240;2022-07-24T00:33:21;172437.25;;;20.54;100.00
9460;BME280;4768;42.664;23.240;2022-07-24T00:35:48;172431.91;;;20.52;100.00
9460;BME280;4768;42.664;23.240;2022-07-24T00:38:15;172417.13;;;20.47;100.00
9460;BME280;4768;42.664;23.240;2022-07-24T00:40:42;172378.25;;;20.33;100.00
9460;BME280;4768;42.664;23.240;2022-07-24T00:43:09;172410.41;;;20.44;100.00
9460;BME280;4768;42.664;23.240;2022-07-24T00:45:36;172429.19;;;20.51;100.00
9460;BME280;4768;42.664;23.240;2022-07-24T00:48:03;172441.28;;;20.56;100.00
9460;BME280;4768;42.664;23.240;2022-07-24T00:50:31;172472.13;;;20.67;100.00
9460;BME280;4768;42.664;23.240;2022-07-24T00:52:58;172507.00;;;20.80;100.00
9460;BME280;4768;42.664;23.240;2022-07-24T00:55:25;172500.34;;;20.78;100.00
9460;BME280;4768;42.664;23.240;2022-07-24T00:57:52;172508.38;;;20.81;100.00
9460;BME280;4768;42.664;23.240;2022-07-24T01:00:20;172494.94;;;20.76;100.00
9460;BME280;4768;42.664;23.240;2022-07-24T01:02:48;172515.06;;;20.83;100.00
9460;BME280;4768;42.664;23.240;2022-07-24T01:05:15;172482.88;;;20.71;100.00
9460;BME280;4768;42.664;23.240;2022-07-24T01:07:43;172509.72;;;20.81;100.00
9460;BME280;4768;42.664;23.240;2022-07-24T01:10:10;172528.50;;;20.88;100.00
9460;BME280;4768;42.664;23.240;2022-07-24T01:12:38;172568.72;;;21.03;100.00
9460;BME280;4768;42.664;23.240;2022-07-24T01:15:07;172598.22;;;21.14;100.00
9460;BME280;4768;42.664;23.240;2022-07-24T01:17:36;172619.72;;;21.22;100.00
9460;BME280;4768;42.664;23.240;2022-07-24T01:20:04;172666.63;;;21.39;100.00
9460;BME280;4768;42.664;23.240;2022-07-24T01:22:33;172702.91;;;21.52;100.00
9460;BME280;4768;42.664;23.240;2022-07-24T01:25:00;172673.34;;;21.41;100.00
9460;BME280;4768;42.664;23.240;2022-07-24T01:27:26;172645.19;;;21.31;100.00
9460;BME280;4768;42.664;23.240;2022-07-24T01:29:53;172625.06;;;21.24;100.00
9460;BME280;4768;42.664;23.240;2022-07-24T01:32:20;172598.22;;;21.14;100.00
9460;BME280;4768;42.664;23.240;2022-07-24T01:34:47;172517.75;;;20.84;100.00
9460;BME280;4768;42.664;23.240;2022-07-24T01:37:13;172461.38;;;20.63;100.00
9460;BME280;4768;42.664;23.240;2022-07-24T01:39:42;172441.28;;;20.56;100.00
9460;BME280;4768;42.664;23.240;2022-07-24T01:42:08;172414.44;;;20.46;100.00
9460;BME280;4768;42.664;23.240;2022-07-24T01:44:35;172430.53;;;20.52;100.00
9460;BME280;4768;42.664;23.240;2022-07-24T01:47:02;172393.00;;;20.38;100.00
9460;BME280;4768;42.664;23.240;2022-07-24T01:49:29;172378.25;;;20.33;100.00
9460;BME280;4768;42.664;23.240;2022-07-24T01:51:55;172388.97;;;20.37;100.00
9460;BME280;4768;42.664;23.240;2022-07-24T01:54:22;172466.72;;;20.65;100.00
9460;BME280;4768;42.664;23.240;2022-07-24T01:56:50;172492.28;;;20.75;100.00
9460;BME280;4768;42.664;23.240;2022-07-24T01:59:17;172454.66;;;20.61;100.00
9460;BME280;4768;42.664;23.240;2022-07-24T02:01:46;172418.47;;;20.47;100.00
9460;BME280;4768;42.664;23.240;2022-07-24T02:04:12;172466.72;;;20.65;100.00
9460;BME280;4768;42.664;23.240;2022-07-24T02:06:39;172433.22;;;20.53;100.00
9460;BME280;4768;42.664;23.240;2022-07-24T02:09:06;172407.75;;;20.43;100.00
9460;BME280;4768;42.664;23.240;2022-07-24T02:11:33;172399.72;;;20.40;100.00
9460;BME280;4768;42.664;23.240;2022-07-24T02:14:01;172368.88;;;20.29;100.00
9460;BME280;4768;42.664;23.240;2022-07-24T02:16:28;172252.19;;;19.86;100.00
9460;BME280;4768;42.664;23.240;2022-07-24T02:18:54;172287.06;;;19.99;100.00
9460;BME280;4768;42.664;23.240;2022-07-24T02:21:21;172319.25;;;20.11;100.00
9460;BME280;4768;42.664;23.240;2022-07-24T02:23:48;172346.06;;;20.21;100.00
9460;BME280;4768;42.664;23.240;2022-07-24T02:26:16;172300.50;;;20.04;100.00
9460;BME280;4768;42.664;23.240;2022-07-24T02:28:42;172241.47;;;19.82;100.00
9460;BME280;4768;42.664;23.240;2022-07-24T02:31:11;172228.09;;;19.77;100.00
9460;BME280;4768;42.664;23.240;2022-07-24T02:33:37;172226.69;;;19.77;100.00
9460;BME280;4768;42.664;23.240;2022-07-24T02:36:04;172209.28;;;19.70;100.00
9460;BME280;4768;42.664;23.240;2022-07-24T02:38:31;172108.78;;;19.33;100.00
9460;BME280;4768;42.664;23.240;2022-07-24T02:40:58;172157.03;;;19.51;100.00
9460;BME280;4768;42.664;23.240;2022-07-24T02:43:25;172059.19;;;19.15;100.00
9460;BME280;4768;42.664;23.240;2022-07-24T02:45:51;172096.75;;;19.29;100.00
9460;BME280;4768;42.664;23.240;2022-07-24T02:48:20;172098.06;;;19.29;100.00
9460;BME280;4768;42.664;23.240;2022-07-24T02:50:47;172077.97;;;19.22;100.00
9460;BME280;4768;42.664;23.240;2022-07-24T02:53:14;172103.41;;;19.31;100.00
9460;BME280;4768;42.664;23.240;2022-07-24T02:55:40;172124.88;;;19.39;100.00
9460;BME280;4768;42.664;23.240;2022-07-24T02:58:07;172049.84;;;19.11;100.00
9460;BME280;4768;42.664;23.240;2022-07-24T03:00:34;172009.59;;;18.96;100.00
9460;BME280;4768;42.664;23.240;2022-07-24T03:03:01;172039.09;;;19.07;100.00
9460;BME280;4768;42.664;23.240;2022-07-24T03:05:30;172040.47;;;19.08;100.00
9460;BME280;4768;42.664;23.240;2022-07-24T03:07:56;172043.13;;;19.09;100.00
9460;BME280;4768;42.664;23.240;2022-07-24T03:10:23;172048.50;;;19.11;100.00
9460;BME280;4768;42.664;23.240;2022-07-24T03:12:50;172094.03;;;19.28;100.00
9460;BME280;4768;42.664;23.240;2022-07-24T03:15:17;172106.09;;;19.32;100.00
9460;BME280;4768;42.664;23.240;2022-07-24T03:17:51;172118.16;;;19.37;100.00
9460;BME280;4768;42.664;23.240;2022-07-24T03:20:18;172127.53;;;19.40;100.00
9460;BME280;4768;42.664;23.240;2022-07-24T03:22:47;172095.38;;;19.28;100.00
9460;BME280;4768;42.664;23.240;2022-07-24T03:25:14;172059.19;;;19.15;100.00
9460;BME280;4768;42.664;23.240;2022-07-24T03:27:41;172073.94;;;19.20;100.00
9460;BME280;4768;42.664;23.240;2022-07-24T03:30:09;172084.69;;;19.24;100.00
9460;BME280;4768;42.664;23.240;2022-07-24T03:32:36;172092.72;;;19.27;100.00
9460;BME280;4768;42.664;23.240;2022-07-24T03:35:03;172069.94;;;19.19;100.00
9460;BME280;4768;42.664;23.240;2022-07-24T03:37:30;172004.19;;;18.94;100.00
9460;BME280;4768;42.664;23.240;2022-07-24T03:39:59;171994.84;;;18.91;100.00
9460;BME280;4768;42.664;23.240;2022-07-24T03:42:25;172022.97;;;19.01;100.00
9460;BME280;4768;42.664;23.240;2022-07-24T03:44:53;172073.94;;;19.20;100.00
9460;BME280;4768;42.664;23.240;2022-07-24T03:47:20;172142.28;;;19.45;100.00
9460;BME280;4768;42.664;23.240;2022-07-24T03:49:47;172159.69;;;19.52;100.00
9460;BME280;4768;42.664;23.240;2022-07-24T03:52:13;172158.34;;;19.51;100.00
9460;BME280;4768;42.664;23.240;2022-07-24T03:54:40;172142.28;;;19.45;100.00
9460;BME280;4768;42.664;23.240;2022-07-24T03:57:08;172119.47;;;19.37;100.00
9460;BME280;4768;42.664;23.240;2022-07-24T03:59:35;172144.97;;;19.46;100.00
9460;BME280;4768;42.664;23.240;2022-07-24T04:02:02;172185.19;;;19.61;100.00
9460;BME280;4768;42.664;23.240;2022-07-24T04:04:29;172234.75;;;19.80;100.00
9460;BME280;4768;42.664;23.240;2022-07-24T04:06:55;172342.03;;;20.19;100.00
9460;BME280;4768;42.664;23.240;2022-07-24T04:09:22;172320.59;;;20.11;100.00
9460;BME280;4768;42.664;23.240;2022-07-24T04:11:49;172307.19;;;20.06;100.00
9460;BME280;4768;42.664;23.240;2022-07-24T04:14:17;172370.19;;;20.30;100.00
9460;BME280;4768;42.664;23.240;2022-07-24T04:16:44;172403.75;;;20.42;100.00
9460;BME280;4768;42.664;23.240;2022-07-24T04:19:12;172419.84;;;20.48;100.00
9460;BME280;4768;42.664;23.240;2022-07-24T04:21:39;172446.63;;;20.58;100.00
9460;BME280;4768;42.664;23.240;2022-07-24T04:24:06;172449.31;;;20.59;100.00
9460;BME280;4768;42.664;23.240;2022-07-24T04:26:33;172480.22;;;20.70;100.00
9460;BME280;4768;42.664;23.240;2022-07-24T04:29:00;172519.06;;;20.85;100.00
9460;BME280;4768;42.664;23.240;2022-07-24T04:31:28;172519.06;;;20.85;100.00
9460;BME280;4768;42.664;23.240;2022-07-24T04:33:54;172517.75;;;20.84;100.00
9460;BME280;4768;42.664;23.240;2022-07-24T04:36:22;172485.56;;;20.72;100.00
9460;BME280;4768;42.664;23.240;2022-07-24T04:38:49;172511.03;;;20.82;100.00
9460;BME280;4768;42.664;23.240;2022-07-24T04:41:16;172513.72;;;20.83;100.00
9460;BME280;4768;42.664;23.240;2022-07-24T04:43:43;172528.50;;;20.88;100.00
9460;BME280;4768;42.664;23.240;2022-07-24T04:46:10;172625.06;;;21.24;100.00
9460;BME280;4768;42.664;23.240;2022-07-24T04:48:38;172670.66;;;21.40;100.00
9460;BME280;4768;42.664;23.240;2022-07-24T04:51:05;172681.41;;;21.44;100.00
9460;BME280;4768;42.664;23.240;2022-07-24T04:53:31;172719.06;;;21.58;100.00
9460;BME280;4768;42.664;23.240;2022-07-24T04:55:58;172763.31;;;21.75;100.00
9460;BME280;4768;42.664;23.240;2022-07-24T04:58:26;172814.28;;;21.93;100.00
9460;BME280;4768;42.664;23.240;2022-07-24T05:00:53;172877.38;;;22.17;100.00
9460;BME280;4768;42.664;23.240;2022-07-24T05:03:20;172859.94;;;22.10;100.00
9460;BME280;4768;42.664;23.240;2022-07-24T05:05:48;172866.63;;;22.13;100.00
9460;BME280;4768;42.664;23.240;2022-07-24T05:08:15;172921.72;;;22.33;100.00
9460;BME280;4768;42.664;23.240;2022-07-24T05:10:41;172998.22;;;22.61;100.00
9460;BME280;4768;42.664;23.240;2022-07-24T05:13:08;173069.38;;;22.87;100.00
9460;BME280;4768;42.664;23.240;2022-07-24T05:15:35;173099.00;;;22.98;100.00
9460;BME280;4768;42.664;23.240;2022-07-24T05:18:02;173007.66;;;22.65;100.00
9460;BME280;4768;42.664;23.240;2022-07-24T05:20:29;172970.03;;;22.51;100.00
9460;BME280;4768;42.664;23.240;2022-07-24T05:22:57;172898.94;;;22.25;100.00
9460;BME280;4768;42.664;23.240;2022-07-24T05:25:24;172849.19;;;22.06;100.00
9460;BME280;4768;42.664;23.240;2022-07-24T05:27:50;172823.72;;;21.97;100.00
9460;BME280;4768;42.664;23.240;2022-07-24T05:30:17;172927.13;;;22.35;100.00
9460;BME280;4768;42.664;23.240;2022-07-24T05:32:44;173026.41;;;22.72;100.00
9460;BME280;4768;42.664;23.240;2022-07-24T05:35:11;173168.81;;;23.24;100.00
9460;BME280;4768;42.664;23.240;2022-07-24T05:37:40;173180.91;;;23.29;100.00
9460;BME280;4768;42.664;23.240;2022-07-24T05:40:10;173305.84;;;23.75;100.00
9460;BME280;4768;42.664;23.240;2022-07-24T05:42:37;173407.97;;;24.12;100.00
9460;BME280;4768;42.664;23.240;2022-07-24T05:45:05;173352.88;;;23.92;100.00
9460;BME280;4768;42.664;23.240;2022-07-24T05:47:36;173240.00;;;23.50;100.00
9460;BME280;4768;42.664;23.240;2022-07-24T05:50:06;173407.97;;;24.12;100.00
9460;BME280;4768;42.664;23.240;2022-07-24T05:52:33;173511.50;;;24.50;100.00
9460;BME280;4768;42.664;23.240;2022-07-24T05:55:00;173534.31;;;24.59;100.00
9460;BME280;4768;42.664;23.240;2022-07-24T05:57:28;173609.59;;;24.86;100.00
9460;BME280;4768;42.664;23.240;2022-07-24T05:59:55;173644.59;;;24.99;100.00
9460;BME280;4768;42.664;23.240;2022-07-24T06:02:21;173721.22;;;25.28;100.00
9460;BME280;4768;42.664;23.240;2022-07-24T06:04:48;173469.81;;;24.35;100.00
9460;BME280;4768;42.664;23.240;2022-07-24T06:07:15;173413.34;;;24.14;100.00
9460;BME280;4768;42.664;23.240;2022-07-24T06:09:42;173577.31;;;24.75;100.00
9460;BME280;4768;42.664;23.240;2022-07-24T06:12:09;173701.03;;;25.20;100.00
9460;BME280;4768;42.664;23.240;2022-07-24T06:14:37;173843.63;;;25.73;100.00
9460;BME280;4768;42.664;23.240;2022-07-24T06:17:04;173801.88;;;25.57;100.00
9460;BME280;4768;42.664;23.240;2022-07-24T06:19:31;173948.53;;;26.11;100.00
9460;BME280;4768;42.664;23.240;2022-07-24T06:21:57;174060.22;;;26.52;100.00
9460;BME280;4768;42.664;23.240;2022-07-24T06:24:25;174132.88;;;26.79;100.00
9460;BME280;4768;42.664;23.240;2022-07-24T06:26:51;174159.78;;;26.89;100.00
9460;BME280;4768;42.664;23.240;2022-07-24T06:29:18;174091.19;;;26.64;100.00
9460;BME280;4768;42.664;23.240;2022-07-24T06:31:46;174062.88;;;26.53;100.00
9460;BME280;4768;42.664;23.240;2022-07-24T06:34:13;174068.28;;;26.55;100.00
9460;BME280;4768;42.664;23.240;2022-07-24T06:36:40;174127.50;;;26.77;100.00
9460;BME280;4768;42.664;23.240;2022-07-24T06:39:07;174062.88;;;26.53;100.00
9460;BME280;4768;42.664;23.240;2022-07-24T06:41:34;174279.59;;;27.33;100.00
9460;BME280;4768;42.664;23.240;2022-07-24T06:44:00;174309.19;;;27.44;100.00
9460;BME280;4768;42.664;23.240;2022-07-24T06:46:27;173921.63;;;26.01;100.00
9460;BME280;4768;42.664;23.240;2022-07-24T06:48:55;173851.69;;;25.76;100.00
9460;BME280;4768;42.664;23.240;2022-07-24T06:51:22;173865.13;;;25.80;100.00
9460;BME280;4768;42.664;23.240;2022-07-24T06:53:49;173858.38;;;25.78;100.00
9460;BME280;4768;42.664;23.240;2022-07-24T06:56:16;173918.97;;;26.00;100.00
9460;BME280;4768;42.664;23.240;2022-07-24T06:58:43;174050.78;;;26.49;100.00
9460;BME280;4768;42.664;23.240;2022-07-24T07:01:10;174042.72;;;26.46;100.00
9460;BME280;4768;42.664;23.240;2022-07-24T07:03:36;174142.25;;;26.82;100.00
9460;BME280;4768;42.664;23.240;2022-07-24T07:06:05;174224.41;;;27.13;100.00
9460;BME280;4768;42.664;23.240;2022-07-24T07:08:32;174184.06;;;26.98;100.00
9460;BME280;4768;42.664;23.240;2022-07-24T07:10:59;174150.34;;;26.85;100.00
9460;BME280;4768;42.664;23.240;2022-07-24T07:13:26;174034.63;;;26.43;100.00
9460;BME280;4768;42.664;23.240;2022-07-24T07:15:52;174180.03;;;26.96;100.00
9460;BME280;4768;42.664;23.240;2022-07-24T07:18:19;174198.81;;;27.03;100.00
9460;BME280;4768;42.664;23.240;2022-07-24T07:20:46;174252.69;;;27.23;100.00
9460;BME280;4768;42.664;23.240;2022-07-24T07:23:20;174264.78;;;27.27;100.00
9460;BME280;4768;42.664;23.240;2022-07-24T07:25:47;174314.56;;;27.46;100.00
9460;BME280;4768;42.664;23.240;2022-07-24T07:28:14;174259.44;;;27.26;100.00
9460;BME280;4768;42.664;23.240;2022-07-24T07:30:41;174416.94;;;27.83;100.00
9460;BME280;4768;42.664;23.240;2022-07-24T07:33:07;174404.81;;;27.79;100.00
9460;BME280;4768;42.664;23.240;2022-07-24T07:35:34;174516.63;;;28.20;100.00
9460;BME280;4768;42.664;23.240;2022-07-24T07:38:01;174609.50;;;28.54;100.00
9460;BME280;4768;42.664;23.240;2022-07-24T07:40:29;174674.19;;;28.78;100.00
9460;BME280;4768;42.664;23.240;2022-07-24T07:42:56;174632.41;;;28.63;100.00
9460;BME280;4768;42.664;23.240;2022-07-24T07:45:23;174286.31;;;27.35;100.00
9460;BME280;4768;42.664;23.240;2022-07-24T07:47:50;174223.03;;;27.12;100.00
9460;BME280;4768;42.664;23.240;2022-07-24T07:50:16;174433.09;;;27.89;100.00
9460;BME280;4768;42.664;23.240;2022-07-24T07:52:43;174660.75;;;28.73;100.00
9460;BME280;4768;42.664;23.240;2022-07-24T07:55:10;174594.69;;;28.49;100.00
9460;BME280;4768;42.664;23.240;2022-07-24T07:57:39;174740.16;;;29.02;100.00
9460;BME280;4768;42.664;23.240;2022-07-24T08:00:07;174473.47;;;28.04;100.00
9460;BME280;4768;42.664;23.240;2022-07-24T08:02:34;174449.25;;;27.95;100.00
9460;BME280;4768;42.664;23.240;2022-07-24T08:05:01;174306.47;;;27.43;100.00
9460;BME280;4768;42.664;23.240;2022-07-24T08:07:28;174473.47;;;28.04;100.00
9460;BME280;4768;42.664;23.240;2022-07-24T08:09:54;174656.72;;;28.72;100.00
9460;BME280;4768;42.664;23.240;2022-07-24T08:12:21;174693.06;;;28.85;98.76
9460;BME280;4768;42.664;23.240;2022-07-24T08:14:49;174738.84;;;29.02;98.18
9460;BME280;4768;42.664;23.240;2022-07-24T08:17:16;174574.50;;;28.41;99.10
9460;BME280;4768;42.664;23.240;2022-07-24T08:19:43;174786.00;;;29.19;100.00
9460;BME280;4768;42.664;23.240;2022-07-24T08:22:11;174741.56;;;29.03;99.87
9460;BME280;4768;42.664;23.240;2022-07-24T08:24:38;174734.78;;;29.00;98.45
9460;BME280;4768;42.664;23.240;2022-07-24T08:27:05;174807.59;;;29.27;98.44
9460;BME280;4768;42.664;23.240;2022-07-24T08:29:32;175001.66;;;29.98;99.77
9460;BME280;4768;42.664;23.240;2022-07-24T08:32:00;175139.16;;;30.49;95.87
9460;BME280;4768;42.664;23.240;2022-07-24T08:34:27;174997.63;;;29.97;93.29
9460;BME280;4768;42.664;23.240;2022-07-24T08:36:54;174953.16;;;29.80;96.34
9460;BME280;4768;42.664;23.240;2022-07-24T08:39:20;174907.28;;;29.64;95.88
9460;BME280;4768;42.664;23.240;2022-07-24T08:41:48;174745.59;;;29.04;98.28
9460;BME280;4768;42.664;23.240;2022-07-24T08:44:14;174678.25;;;28.79;99.09
9460;BME280;4768;42.664;23.240;2022-07-24T08:46:41;174663.41;;;28.74;98.64
9460;BME280;4768;42.664;23.240;2022-07-24T08:49:11;174807.59;;;29.27;99.57
9460;BME280;4768;42.664;23.240;2022-07-24T08:51:39;175008.38;;;30.01;98.54
9460;BME280;4768;42.664;23.240;2022-07-24T08:54:07;174891.09;;;29.58;95.70
9460;BME280;4768;42.664;23.240;2022-07-24T08:56:38;174830.50;;;29.35;99.33
9460;BME280;4768;42.664;23.240;2022-07-24T08:59:05;174799.50;;;29.24;100.00
9460;BME280;4768;42.664;23.240;2022-07-24T09:01:31;174777.91;;;29.16;98.63
9460;BME280;4768;42.664;23.240;2022-07-24T09:03:58;174722.69;;;28.96;98.17
9460;BME280;4768;42.664;23.240;2022-07-24T09:06:26;174705.19;;;28.89;100.00
9460;BME280;4768;42.664;23.240;2022-07-24T09:08:58;174648.63;;;28.69;98.46
9460;BME280;4768;42.664;23.240;2022-07-24T09:11:25;174724.00;;;28.96;100.00
9460;BME280;4768;42.664;23.240;2022-07-24T09:13:59;174772.53;;;29.14;99.84
9460;BME280;4768;42.664;23.240;2022-07-24T09:16:44;175017.84;;;30.04;95.90
9460;BME280;4768;42.664;23.240;2022-07-24T09:19:12;175309.06;;;31.11;98.80
9460;BME280;4768;42.664;23.240;2022-07-24T09:21:43;175311.75;;;31.12;93.35
9460;BME280;4768;42.664;23.240;2022-07-24T09:24:12;175017.84;;;30.04;94.11
9460;BME280;4768;42.664;23.240;2022-07-24T09:26:44;175050.19;;;30.16;96.87
9460;BME280;4768;42.664;23.240;2022-07-24T09:29:12;175100.06;;;30.34;97.17
9460;BME280;4768;42.664;23.240;2022-07-24T09:31:53;175064.97;;;30.22;95.50
9460;BME280;4768;42.664;23.240;2022-07-24T09:34:20;175106.81;;;30.37;100.00
9460;BME280;4768;42.664;23.240;2022-07-24T09:37:07;175170.19;;;30.60;100.00
9460;BME280;4768;42.664;23.240;2022-07-24T09:39:36;175136.47;;;30.48;100.00
9460;BME280;4768;42.664;23.240;2022-07-24T09:42:04;175168.78;;;30.60;100.00
9460;BME280;4768;42.664;23.240;2022-07-24T09:44:32;175075.75;;;30.25;100.00
9460;BME280;4768;42.664;23.240;2022-07-24T09:47:02;175009.75;;;30.01;100.00
9460;BME280;4768;42.664;23.240;2022-07-24T09:49:30;175094.66;;;30.32;99.60
9460;BME280;4768;42.664;23.240;2022-07-24T09:52:10;175171.50;;;30.61;96.93
9460;BME280;4768;42.664;23.240;2022-07-24T09:54:38;175210.63;;;30.75;100.00
9460;BME280;4768;42.664;23.240;2022-07-24T09:57:20;175245.69;;;30.88;95.83
9460;BME280;4768;42.664;23.240;2022-07-24T09:59:49;175288.84;;;31.04;97.56
9460;BME280;4768;42.664;23.240;2022-07-24T10:02:17;175416.97;;;31.51;81.35
9460;BME280;4768;42.664;23.240;2022-07-24T10:04:45;175450.66;;;31.63;87.69
9460;BME280;4768;42.664;23.240;2022-07-24T10:07:16;175385.88;;;31.39;81.09
9460;BME280;4768;42.664;23.240;2022-07-24T10:09:44;175427.78;;;31.55;79.00
9460;BME280;4768;42.664;23.240;2022-07-24T10:12:13;175317.13;;;31.14;75.35
9460;BME280;4768;42.664;23.240;2022-07-24T10:14:41;175269.94;;;30.97;75.91
9460;BME280;4768;42.664;23.240;2022-07-24T10:17:10;175279.41;;;31.00;76.67
9460;BME280;4768;42.664;23.240;2022-07-24T10:19:41;175380.50;;;31.37;75.28
9460;BME280;4768;42.664;23.240;2022-07-24T10:22:12;175348.16;;;31.25;69.34
9460;BME280;4768;42.664;23.240;2022-07-24T10:24:56;175489.78;;;31.77;71.65
9460;BME280;4768;42.664;23.240;2022-07-24T10:27:31;175631.44;;;32.29;74.38
9460;BME280;4768;42.664;23.240;2022-07-24T10:30:00;175630.09;;;32.29;72.12
9460;BME280;4768;42.664;23.240;2022-07-24T10:32:27;175721.91;;;32.63;70.27
9460;BME280;4768;42.664;23.240;2022-07-24T10:35:10;175833.94;;;33.04;72.90
9460;BME280;4768;42.664;23.240;2022-07-24T10:37:43;175924.34;;;33.37;64.99
9460;BME280;4768;42.664;23.240;2022-07-24T10:40:20;175958.16;;;33.49;50.79
9460;BME280;4768;42.664;23.240;2022-07-24T10:43:17;175925.72;;;33.37;57.68
9460;BME280;4768;42.664;23.240;2022-07-24T10:45:45;175948.66;;;33.46;56.59
9460;BME280;4768;42.664;23.240;2022-07-24T10:48:29;175777.22;;;32.83;56.24
9460;BME280;4768;42.664;23.240;2022-07-24T10:51:02;175672.00;;;32.44;53.72
9460;BME280;4768;42.664;23.240;2022-07-24T10:53:52;175574.81;;;32.09;53.28
9460;BME280;4768;42.664;23.240;2022-07-24T10:56:23;175663.88;;;32.41;65.18
9460;BME280;4768;42.664;23.240;2022-07-24T10:58:56;175608.53;;;32.21;59.03
9460;BME280;4768;42.664;23.240;2022-07-24T11:01:37;175678.72;;;32.47;59.96
9460;BME280;4768;42.664;23.240;2022-07-24T11:04:28;175692.25;;;32.52;55.98
9460;BME280;4768;42.664;23.240;2022-07-24T11:07:03;175732.72;;;32.67;55.52
9460;BME280;4768;42.664;23.240;2022-07-24T11:09:53;175739.41;;;32.69;54.81
9460;BME280;4768;42.664;23.240;2022-07-24T11:12:27;175709.75;;;32.58;54.71
9460;BME280;4768;42.664;23.240;2022-07-24T11:14:58;175812.38;;;32.96;55.74
9460;BME280;4768;42.664;23.240;2022-07-24T11:17:46;175808.31;;;32.94;55.27
9460;BME280;4768;42.664;23.240;2022-07-24T11:20:15;175839.31;;;33.06;54.86
9460;BME280;4768;42.664;23.240;2022-07-24T11:22:45;175960.81;;;33.50;62.20
9460;BME280;4768;42.664;23.240;2022-07-24T11:25:16;175991.88;;;33.62;58.25
9460;BME280;4768;42.664;23.240;2022-07-24T11:27:53;175878.47;;;33.20;54.59
9460;BME280;4768;42.664;23.240;2022-07-24T11:30:24;175781.28;;;32.84;56.25
9460;BME280;4768;42.664;23.240;2022-07-24T11:32:51;175801.50;;;32.92;54.45
9460;BME280;4768;42.664;23.240;2022-07-24T11:35:29;175843.38;;;33.07;63.54
9460;BME280;4768;42.664;23.240;2022-07-24T11:37:58;175757.00;;;32.75;59.98
9460;BME280;4768;42.664;23.240;2022-07-24T11:40:26;175665.19;;;32.42;59.76
9460;BME280;4768;42.664;23.240;2022-07-24T11:42:58;175723.22;;;32.63;68.95
9460;BME280;4768;42.664;23.240;2022-07-24T11:45:25;175711.09;;;32.59;73.14
9460;BME280;4768;42.664;23.240;2022-07-24T11:47:52;175604.50;;;32.20;62.71
9460;BME280;4768;42.664;23.240;2022-07-24T11:50:21;175546.47;;;31.98;66.60
9460;BME280;4768;42.664;23.240;2022-07-24T11:52:48;175566.72;;;32.06;61.42
9460;BME280;4768;42.664;23.240;2022-07-24T11:55:17;175452.03;;;31.64;65.79
9460;BME280;4768;42.664;23.240;2022-07-24T11:57:46;175396.75;;;31.43;75.21
9460;BME280;4768;42.664;23.240;2022-07-24T12:00:17;175438.53;;;31.59;66.80
9460;BME280;4768;42.664;23.240;2022-07-24T12:02:45;175489.78;;;31.77;65.04
9460;BME280;4768;42.664;23.240;2022-07-24T12:05:12;175551.91;;;32.00;78.10
9460;BME280;4768;42.664;23.240;2022-07-24T12:07:39;175596.41;;;32.17;78.12
9460;BME280;4768;42.664;23.240;2022-07-24T12:10:06;175635.53;;;32.31;82.46
9460;BME280;4768;42.664;23.240;2022-07-24T12:12:35;175670.63;;;32.44;81.33
9460;BME280;4768;42.664;23.240;2022-07-24T12:15:05;175732.72;;;32.67;82.51
9460;BME280;4768;42.664;23.240;2022-07-24T12:17:35;175840.72;;;33.06;79.94
9460;BME280;4768;42.664;23.240;2022-07-24T12:20:21;175743.47;;;32.71;69.56
9460;BME280;4768;42.664;23.240;2022-07-24T12:22:47;175777.22;;;32.83;64.49
9460;BME280;4768;42.664;23.240;2022-07-24T12:25:14;175867.66;;;33.16;68.47
9460;BME280;4768;42.664;23.240;2022-07-24T12:27:43;175906.81;;;33.30;60.33
9460;BME280;4768;42.664;23.240;2022-07-24T12:30:31;176018.88;;;33.72;57.94
9460;BME280;4768;42.664;23.240;2022-07-24T12:33:04;176047.22;;;33.82;57.16
9460;BME280;4768;42.664;23.240;2022-07-24T12:35:34;176087.78;;;33.97;58.63
9460;BME280;4768;42.664;23.240;2022-07-24T12:38:02;175987.81;;;33.60;52.13
9460;BME280;4768;42.664;23.240;2022-07-24T12:40:32;176068.81;;;33.90;51.31
9460;BME280;4768;42.664;23.240;2022-07-24T12:43:03;176098.59;;;34.01;52.63
9460;BME280;4768;42.664;23.240;2022-07-24T12:45:30;176072.84;;;33.91;53.56
9460;BME280;4768;42.664;23.240;2022-07-24T12:48:16;176159.31;;;34.23;57.62
9460;BME280;4768;42.664;23.240;2022-07-24T12:51:02;175982.44;;;33.58;53.37
9460;BME280;4768;42.664;23.240;2022-07-24T12:53:30;176022.94;;;33.73;57.23
9460;BME280;4768;42.664;23.240;2022-07-24T12:56:06;176001.34;;;33.65;54.07
9460;BME280;4768;42.664;23.240;2022-07-24T13:01:51;176033.75;;;33.77;50.66
9460;BME280;4768;42.664;23.240;2022-07-24T13:04:22;176137.69;;;34.15;51.33